sensor_id;sensor_type;location;lat;lon;timestamp;temperature;humidity
38020;DHT22;23829;51.350;17.286;2023-11-19T00:01:36;16.10;43.00
38020;DHT22;23829;51.350;17.286;2023-11-19T00:04:02;16.00;43.20
38020;DHT22;23829;51.350;17.286;2023-11-19T00:06:31;16.20;43.00
38020;DHT22;23829;51.350;17.286;2023-11-19T00:08:57;16.30;42.80
38020;DHT22;23829;51.350;17.286;2023-11-19T00:11:23;16.20;43.00
38020;DHT22;23829;51.350;17.286;2023-11-19T00:13:50;16.20;43.10
38020;DHT22;23829;51.350;17.286;2023-11-19T00:16:16;16.20;43.20
38020;DHT22;23829;51.350;17.286;2023-11-19T00:18:42;16.20;43.30
38020;DHT22;23829;51.350;17.286;2023-11-19T00:21:09;16.10;43.20
38020;DHT22;23829;51.350;17.286;2023-11-19T00:23:36;15.90;43.70
38020;DHT22;23829;51.350;17.286;2023-11-19T00:26:03;15.70;44.70
38020;DHT22;23829;51.350;17.286;2023-11-19T00:28:32;15.70;44.30
38020;DHT22;23829;51.350;17.286;2023-11-19T00:31:01;15.70;44.60
38020;DHT22;23829;51.350;17.286;2023-11-19T00:33:28;15.50;44.50
38020;DHT22;23829;51.350;17.286;2023-11-19T00:35:55;15.50;44.90
38020;DHT22;23829;51.350;17.286;2023-11-19T00:38:21;15.60;44.70
38020;DHT22;23829;51.350;17.286;2023-11-19T00:40:48;15.70;44.60
38020;DHT22;23829;51.350;17.286;2023-11-19T00:43:14;15.90;44.30
38020;DHT22;23829;51.350;17.286;2023-11-19T00:45:40;15.80;44.50
38020;DHT22;23829;51.350;17.286;2023-11-19T00:48:07;15.80;44.20
38020;DHT22;23829;51.350;17.286;2023-11-19T00:50:33;15.90;44.30
38020;DHT22;23829;51.350;17.286;2023-11-19T00:52:59;15.60;44.50
38020;DHT22;23829;51.350;17.286;2023-11-19T00:55:26;15.50;44.70
38020;DHT22;23829;51.350;17.286;2023-11-19T00:57:52;15.40;44.70
38020;DHT22;23829;51.350;17.286;2023-11-19T01:00:18;15.30;44.80
38020;DHT22;23829;51.350;17.286;2023-11-19T01:02:45;15.20;44.90
38020;DHT22;23829;51.350;17.286;2023-11-19T01:05:12;15.30;44.90
38020;DHT22;23829;51.350;17.286;2023-11-19T01:07:41;15.10;45.10
38020;DHT22;23829;51.350;17.286;2023-11-19T01:10:08;14.90;45.30
38020;DHT22;23829;51.350;17.286;2023-11-19T01:12:34;14.90;45.40
38020;DHT22;23829;51.350;17.286;2023-11-19T01:15:01;14.90;45.50
38020;DHT22;23829;51.350;17.286;2023-11-19T01:17:27;14.90;45.30
38020;DHT22;23829;51.350;17.286;2023-11-19T01:19:54;14.90;45.10
38020;DHT22;23829;51.350;17.286;2023-11-19T01:22:20;14.90;45.30
38020;DHT22;23829;51.350;17.286;2023-11-19T01:24:47;14.90;45.30
38020;DHT22;23829;51.350;17.286;2023-11-19T01:27:13;14.80;45.40
38020;DHT22;23829;51.350;17.286;2023-11-19T01:29:40;15.00;45.20
38020;DHT22;23829;51.350;17.286;2023-11-19T01:32:09;15.00;45.10
38020;DHT22;23829;51.350;17.286;2023-11-19T01:34:35;15.10;45.00
38020;DHT22;23829;51.350;17.286;2023-11-19T01:37:02;15.00;44.90
38020;DHT22;23829;51.350;17.286;2023-11-19T01:39:29;15.10;45.00
38020;DHT22;23829;51.350;17.286;2023-11-19T01:41:55;15.20;44.60
38020;DHT22;23829;51.350;17.286;2023-11-19T01:44:22;15.20;44.50
38020;DHT22;23829;51.350;17.286;2023-11-19T01:46:49;15.30;44.50
38020;DHT22;23829;51.350;17.286;2023-11-19T01:49:16;15.70;43.90
38020;DHT22;23829;51.350;17.286;2023-11-19T01:51:44;15.70;43.70
38020;DHT22;23829;51.350;17.286;2023-11-19T01:54:11;15.60;43.90
38020;DHT22;23829;51.350;17.286;2023-11-19T01:56:39;15.50;43.90
38020;DHT22;23829;51.350;17.286;2023-11-19T01:59:07;15.70;43.80
38020;DHT22;23829;51.350;17.286;2023-11-19T02:01:36;15.90;43.30
38020;DHT22;23829;51.350;17.286;2023-11-19T02:04:09;15.80;43.50
38020;DHT22;23829;51.350;17.286;2023-11-19T02:06:39;16.00;43.40
38020;DHT22;23829;51.350;17.286;2023-11-19T02:09:06;16.00;42.70
38020;DHT22;23829;51.350;17.286;2023-11-19T02:11:34;16.00;43.00
38020;DHT22;23829;51.350;17.286;2023-11-19T02:14:01;16.00;43.10
38020;DHT22;23829;51.350;17.286;2023-11-19T02:16:29;16.00;43.00
38020;DHT22;23829;51.350;17.286;2023-11-19T02:18:56;15.80;43.20
38020;DHT22;23829;51.350;17.286;2023-11-19T02:21:22;15.90;43.30
38020;DHT22;23829;51.350;17.286;2023-11-19T02:23:48;15.70;43.50
38020;DHT22;23829;51.350;17.286;2023-11-19T02:26:24;15.80;43.60
38020;DHT22;23829;51.350;17.286;2023-11-19T02:28:51;15.70;43.60
38020;DHT22;23829;51.350;17.286;2023-11-19T02:31:19;15.50;43.80
38020;DHT22;23829;51.350;17.286;2023-11-19T02:33:46;15.70;43.50
38020;DHT22;23829;51.350;17.286;2023-11-19T02:36:12;16.00;43.20
38020;DHT22;23829;51.350;17.286;2023-11-19T02:38:39;16.30;42.70
38020;DHT22;23829;51.350;17.286;2023-11-19T02:41:06;16.00;42.90
38020;DHT22;23829;51.350;17.286;2023-11-19T02:43:33;16.20;42.90
38020;DHT22;23829;51.350;17.286;2023-11-19T02:46:04;16.10;43.00
38020;DHT22;23829;51.350;17.286;2023-11-19T02:48:35;16.00;43.00
38020;DHT22;23829;51.350;17.286;2023-11-19T02:51:02;15.90;43.10
38020;DHT22;23829;51.350;17.286;2023-11-19T02:53:35;15.90;43.20
38020;DHT22;23829;51.350;17.286;2023-11-19T02:56:04;15.70;43.40
38020;DHT22;23829;51.350;17.286;2023-11-19T02:58:51;15.90;43.20
38020;DHT22;23829;51.350;17.286;2023-11-19T03:01:24;16.00;42.90
38020;DHT22;23829;51.350;17.286;2023-11-19T03:03:57;16.00;42.80
38020;DHT22;23829;51.350;17.286;2023-11-19T03:06:24;15.90;43.10
38020;DHT22;23829;51.350;17.286;2023-11-19T03:08:51;15.80;43.20
38020;DHT22;23829;51.350;17.286;2023-11-19T03:11:17;15.60;43.50
38020;DHT22;23829;51.350;17.286;2023-11-19T03:13:43;15.50;43.70
38020;DHT22;23829;51.350;17.286;2023-11-19T03:16:10;15.40;43.80
38020;DHT22;23829;51.350;17.286;2023-11-19T03:18:38;15.40;44.20
38020;DHT22;23829;51.350;17.286;2023-11-19T03:21:08;15.50;43.90
38020;DHT22;23829;51.350;17.286;2023-11-19T03:23:35;15.80;43.50
38020;DHT22;23829;51.350;17.286;2023-11-19T03:26:02;15.80;43.30
38020;DHT22;23829;51.350;17.286;2023-11-19T03:28:31;15.80;43.30
38020;DHT22;23829;51.350;17.286;2023-11-19T03:30:58;16.10;42.90
38020;DHT22;23829;51.350;17.286;2023-11-19T03:33:24;15.90;42.90
38020;DHT22;23829;51.350;17.286;2023-11-19T03:35:54;16.00;42.80
38020;DHT22;23829;51.350;17.286;2023-11-19T03:38:23;16.20;42.60
38020;DHT22;23829;51.350;17.286;2023-11-19T03:40:50;16.20;42.30
38020;DHT22;23829;51.350;17.286;2023-11-19T03:43:17;16.10;42.50
38020;DHT22;23829;51.350;17.286;2023-11-19T03:45:45;15.90;42.60
38020;DHT22;23829;51.350;17.286;2023-11-19T03:48:12;15.80;42.80
38020;DHT22;23829;51.350;17.286;2023-11-19T03:50:38;15.70;43.00
38020;DHT22;23829;51.350;17.286;2023-11-19T03:53:05;15.80;43.50
38020;DHT22;23829;51.350;17.286;2023-11-19T03:55:31;15.50;43.30
38020;DHT22;23829;51.350;17.286;2023-11-19T03:57:58;15.60;43.20
38020;DHT22;23829;51.350;17.286;2023-11-19T04:00:25;15.50;43.50
38020;DHT22;23829;51.350;17.286;2023-11-19T04:02:51;15.40;43.60
38020;DHT22;23829;51.350;17.286;2023-11-19T04:05:17;15.20;44.00
38020;DHT22;23829;51.350;17.286;2023-11-19T04:07:45;15.00;44.30
38020;DHT22;23829;51.350;17.286;2023-11-19T04:10:11;15.00;44.30
38020;DHT22;23829;51.350;17.286;2023-11-19T04:12:38;15.20;44.30
38020;DHT22;23829;51.350;17.286;2023-11-19T04:15:05;15.40;43.80
38020;DHT22;23829;51.350;17.286;2023-11-19T04:17:31;15.10;44.10
38020;DHT22;23829;51.350;17.286;2023-11-19T04:19:58;14.90;44.50
38020;DHT22;23829;51.350;17.286;2023-11-19T04:22:24;15.10;44.50
38020;DHT22;23829;51.350;17.286;2023-11-19T04:24:51;15.40;43.90
38020;DHT22;23829;51.350;17.286;2023-11-19T04:27:17;15.40;43.80
38020;DHT22;23829;51.350;17.286;2023-11-19T04:29:44;15.20;43.80
38020;DHT22;23829;51.350;17.286;2023-11-19T04:32:11;15.20;43.90
38020;DHT22;23829;51.350;17.286;2023-11-19T04:34:38;15.10;44.10
38020;DHT22;23829;51.350;17.286;2023-11-19T04:37:04;14.90;44.50
38020;DHT22;23829;51.350;17.286;2023-11-19T04:39:31;14.90;44.30
38020;DHT22;23829;51.350;17.286;2023-11-19T04:41:57;14.60;44.80
38020;DHT22;23829;51.350;17.286;2023-11-19T04:44:24;14.60;45.30
38020;DHT22;23829;51.350;17.286;2023-11-19T04:46:50;14.70;45.10
38020;DHT22;23829;51.350;17.286;2023-11-19T04:49:17;14.60;45.30
38020;DHT22;23829;51.350;17.286;2023-11-19T04:51:45;14.50;45.40
38020;DHT22;23829;51.350;17.286;2023-11-19T04:54:13;14.60;45.60
38020;DHT22;23829;51.350;17.286;2023-11-19T04:56:40;14.80;45.10
38020;DHT22;23829;51.350;17.286;2023-11-19T04:59:07;14.70;45.20
38020;DHT22;23829;51.350;17.286;2023-11-19T05:01:33;14.50;45.50
38020;DHT22;23829;51.350;17.286;2023-11-19T05:04:00;14.60;45.60
38020;DHT22;23829;51.350;17.286;2023-11-19T05:06:27;14.50;45.50
38020;DHT22;23829;51.350;17.286;2023-11-19T05:08:55;14.60;45.50
38020;DHT22;23829;51.350;17.286;2023-11-19T05:11:22;14.40;45.70
38020;DHT22;23829;51.350;17.286;2023-11-19T05:13:49;14.50;45.90
38020;DHT22;23829;51.350;17.286;2023-11-19T05:16:16;14.40;46.00
38020;DHT22;23829;51.350;17.286;2023-11-19T05:18:43;14.70;45.70
38020;DHT22;23829;51.350;17.286;2023-11-19T05:21:10;14.80;45.40
38020;DHT22;23829;51.350;17.286;2023-11-19T05:23:37;14.80;45.40
38020;DHT22;23829;51.350;17.286;2023-11-19T05:26:03;15.00;45.30
38020;DHT22;23829;51.350;17.286;2023-11-19T05:28:30;15.00;44.70
38020;DHT22;23829;51.350;17.286;2023-11-19T05:30:56;15.10;44.50
38020;DHT22;23829;51.350;17.286;2023-11-19T05:33:23;15.10;44.70
38020;DHT22;23829;51.350;17.286;2023-11-19T05:35:49;15.00;44.80
38020;DHT22;23829;51.350;17.286;2023-11-19T05:38:15;14.80;45.10
38020;DHT22;23829;51.350;17.286;2023-11-19T05:40:42;14.90;45.10
38020;DHT22;23829;51.350;17.286;2023-11-19T05:43:08;15.10;44.60
38020;DHT22;23829;51.350;17.286;2023-11-19T05:45:34;14.80;44.80
38020;DHT22;23829;51.350;17.286;2023-11-19T05:48:01;14.60;45.30
38020;DHT22;23829;51.350;17.286;2023-11-19T05:50:29;14.70;45.50
38020;DHT22;23829;51.350;17.286;2023-11-19T05:52:55;14.60;45.60
38020;DHT22;23829;51.350;17.286;2023-11-19T05:55:21;14.70;45.50
38020;DHT22;23829;51.350;17.286;2023-11-19T05:57:49;14.40;45.80
38020;DHT22;23829;51.350;17.286;2023-11-19T06:00:17;14.40;46.00
38020;DHT22;23829;51.350;17.286;2023-11-19T06:02:44;14.40;46.30
38020;DHT22;23829;51.350;17.286;2023-11-19T06:05:11;14.00;46.60
38020;DHT22;23829;51.350;17.286;2023-11-19T06:07:38;14.10;47.10
38020;DHT22;23829;51.350;17.286;2023-11-19T06:10:05;14.00;47.20
38020;DHT22;23829;51.350;17.286;2023-11-19T06:12:33;13.90;47.30
38020;DHT22;23829;51.350;17.286;2023-11-19T06:15:05;13.90;47.30
38020;DHT22;23829;51.350;17.286;2023-11-19T06:17:32;14.00;47.30
38020;DHT22;23829;51.350;17.286;2023-11-19T06:19:58;13.90;47.20
38020;DHT22;23829;51.350;17.286;2023-11-19T06:22:24;14.00;47.50
38020;DHT22;23829;51.350;17.286;2023-11-19T06:24:51;13.90;47.30
38020;DHT22;23829;51.350;17.286;2023-11-19T06:27:17;13.60;48.00
38020;DHT22;23829;51.350;17.286;2023-11-19T06:29:43;13.70;48.00
38020;DHT22;23829;51.350;17.286;2023-11-19T06:32:10;13.90;47.90
38020;DHT22;23829;51.350;17.286;2023-11-19T06:34:36;14.00;47.80
38020;DHT22;23829;51.350;17.286;2023-11-19T06:37:02;14.10;47.40
38020;DHT22;23829;51.350;17.286;2023-11-19T06:39:30;14.30;47.10
38020;DHT22;23829;51.350;17.286;2023-11-19T06:41:56;14.40;46.90
38020;DHT22;23829;51.350;17.286;2023-11-19T06:44:22;14.20;47.20
38020;DHT22;23829;51.350;17.286;2023-11-19T06:46:49;14.40;47.60
38020;DHT22;23829;51.350;17.286;2023-11-19T06:49:15;14.60;46.60
38020;DHT22;23829;51.350;17.286;2023-11-19T06:51:42;14.80;45.90
38020;DHT22;23829;51.350;17.286;2023-11-19T06:54:10;14.60;46.10
38020;DHT22;23829;51.350;17.286;2023-11-19T06:56:36;14.70;46.30
38020;DHT22;23829;51.350;17.286;2023-11-19T06:59:03;15.00;46.10
38020;DHT22;23829;51.350;17.286;2023-11-19T07:01:34;15.00;45.50
38020;DHT22;23829;51.350;17.286;2023-11-19T07:04:02;15.10;45.70
38020;DHT22;23829;51.350;17.286;2023-11-19T07:06:35;14.90;45.60
38020;DHT22;23829;51.350;17.286;2023-11-19T07:09:02;14.90;45.80
38020;DHT22;23829;51.350;17.286;2023-11-19T07:11:39;14.90;45.90
38020;DHT22;23829;51.350;17.286;2023-11-19T07:14:06;14.80;46.00
38020;DHT22;23829;51.350;17.286;2023-11-19T07:16:33;14.80;46.00
38020;DHT22;23829;51.350;17.286;2023-11-19T07:19:08;14.70;46.20
38020;DHT22;23829;51.350;17.286;2023-11-19T07:21:34;14.50;46.40
38020;DHT22;23829;51.350;17.286;2023-11-19T07:24:04;14.50;46.80
38020;DHT22;23829;51.350;17.286;2023-11-19T07:26:31;14.50;46.70
38020;DHT22;23829;51.350;17.286;2023-11-19T07:28:58;14.50;46.70
38020;DHT22;23829;51.350;17.286;2023-11-19T07:31:24;14.50;47.10
38020;DHT22;23829;51.350;17.286;2023-11-19T07:33:50;14.60;46.70
38020;DHT22;23829;51.350;17.286;2023-11-19T07:36:17;14.70;46.70
38020;DHT22;23829;51.350;17.286;2023-11-19T07:38:43;14.80;46.70
38020;DHT22;23829;51.350;17.286;2023-11-19T07:41:09;14.80;46.40
38020;DHT22;23829;51.350;17.286;2023-11-19T07:43:45;14.80;46.30
38020;DHT22;23829;51.350;17.286;2023-11-19T07:46:13;14.70;46.60
38020;DHT22;23829;51.350;17.286;2023-11-19T07:48:40;14.80;46.90
38020;DHT22;23829;51.350;17.286;2023-11-19T07:51:08;14.80;46.40
38020;DHT22;23829;51.350;17.286;2023-11-19T07:53:37;14.90;46.30
38020;DHT22;23829;51.350;17.286;2023-11-19T07:56:05;15.00;46.40
38020;DHT22;23829;51.350;17.286;2023-11-19T07:58:31;14.90;46.70
38020;DHT22;23829;51.350;17.286;2023-11-19T08:00:57;15.00;46.70
38020;DHT22;23829;51.350;17.286;2023-11-19T08:03:24;14.90;46.70
38020;DHT22;23829;51.350;17.286;2023-11-19T08:05:50;14.80;46.70
38020;DHT22;23829;51.350;17.286;2023-11-19T08:08:17;14.80;46.90
38020;DHT22;23829;51.350;17.286;2023-11-19T08:10:43;14.80;47.00
38020;DHT22;23829;51.350;17.286;2023-11-19T08:13:11;14.80;47.10
38020;DHT22;23829;51.350;17.286;2023-11-19T08:15:38;14.80;47.20
38020;DHT22;23829;51.350;17.286;2023-11-19T08:18:04;14.80;47.20
38020;DHT22;23829;51.350;17.286;2023-11-19T08:20:31;14.70;47.40
38020;DHT22;23829;51.350;17.286;2023-11-19T08:22:57;14.90;47.20
38020;DHT22;23829;51.350;17.286;2023-11-19T08:25:23;14.90;46.80
38020;DHT22;23829;51.350;17.286;2023-11-19T08:27:50;14.90;46.90
38020;DHT22;23829;51.350;17.286;2023-11-19T08:30:16;14.80;47.20
38020;DHT22;23829;51.350;17.286;2023-11-19T08:32:42;14.90;47.20
38020;DHT22;23829;51.350;17.286;2023-11-19T08:35:09;14.90;47.10
38020;DHT22;23829;51.350;17.286;2023-11-19T08:37:36;14.80;47.10
38020;DHT22;23829;51.350;17.286;2023-11-19T08:40:03;14.80;47.00
38020;DHT22;23829;51.350;17.286;2023-11-19T08:42:30;14.80;47.10
38020;DHT22;23829;51.350;17.286;2023-11-19T08:44:57;15.00;46.80
38020;DHT22;23829;51.350;17.286;2023-11-19T08:47:23;15.00;46.30
38020;DHT22;23829;51.350;17.286;2023-11-19T08:49:53;14.70;46.60
38020;DHT22;23829;51.350;17.286;2023-11-19T08:52:19;14.70;46.90
38020;DHT22;23829;51.350;17.286;2023-11-19T08:54:46;14.80;46.90
38020;DHT22;23829;51.350;17.286;2023-11-19T08:57:12;14.90;46.30
38020;DHT22;23829;51.350;17.286;2023-11-19T08:59:38;14.80;47.10
38020;DHT22;23829;51.350;17.286;2023-11-19T09:02:05;14.60;46.80
38020;DHT22;23829;51.350;17.286;2023-11-19T09:04:32;14.40;47.30
38020;DHT22;23829;51.350;17.286;2023-11-19T09:06:59;14.50;47.30
38020;DHT22;23829;51.350;17.286;2023-11-19T09:09:26;14.50;47.10
38020;DHT22;23829;51.350;17.286;2023-11-19T09:11:52;14.40;47.20
38020;DHT22;23829;51.350;17.286;2023-11-19T09:14:18;14.30;47.30
38020;DHT22;23829;51.350;17.286;2023-11-19T09:16:48;14.40;47.50
38020;DHT22;23829;51.350;17.286;2023-11-19T09:19:14;14.50;47.10
38020;DHT22;23829;51.350;17.286;2023-11-19T09:21:41;14.50;47.10
38020;DHT22;23829;51.350;17.286;2023-11-19T09:24:07;14.30;47.10
38020;DHT22;23829;51.350;17.286;2023-11-19T09:26:33;14.20;47.50
38020;DHT22;23829;51.350;17.286;2023-11-19T09:29:02;13.90;47.90
38020;DHT22;23829;51.350;17.286;2023-11-19T09:31:28;13.90;48.40
38020;DHT22;23829;51.350;17.286;2023-11-19T09:33:57;13.70;48.70
38020;DHT22;23829;51.350;17.286;2023-11-19T09:36:24;13.60;49.10
38020;DHT22;23829;51.350;17.286;2023-11-19T09:38:50;13.80;48.90
38020;DHT22;23829;51.350;17.286;2023-11-19T09:41:19;13.90;48.50
38020;DHT22;23829;51.350;17.286;2023-11-19T09:43:46;13.90;48.50
38020;DHT22;23829;51.350;17.286;2023-11-19T09:46:15;14.00;48.30
38020;DHT22;23829;51.350;17.286;2023-11-19T09:48:44;14.00;48.20
38020;DHT22;23829;51.350;17.286;2023-11-19T09:51:15;13.90;48.40
38020;DHT22;23829;51.350;17.286;2023-11-19T09:53:44;13.90;48.40
38020;DHT22;23829;51.350;17.286;2023-11-19T09:56:14;14.00;48.20
38020;DHT22;23829;51.350;17.286;2023-11-19T09:58:45;14.00;48.40
38020;DHT22;23829;51.350;17.286;2023-11-19T10:01:18;13.90;48.60
38020;DHT22;23829;51.350;17.286;2023-11-19T10:03:54;13.80;48.70
38020;DHT22;23829;51.350;17.286;2023-11-19T10:06:22;13.80;49.10
38020;DHT22;23829;51.350;17.286;2023-11-19T10:08:51;13.90;48.80
38020;DHT22;23829;51.350;17.286;2023-11-19T10:11:17;13.90;48.70
38020;DHT22;23829;51.350;17.286;2023-11-19T10:13:43;13.80;48.80
38020;DHT22;23829;51.350;17.286;2023-11-19T10:16:14;13.60;49.40
38020;DHT22;23829;51.350;17.286;2023-11-19T10:18:47;13.70;49.60
38020;DHT22;23829;51.350;17.286;2023-11-19T10:21:14;13.80;49.50
38020;DHT22;23829;51.350;17.286;2023-11-19T10:23:56;14.10;49.00
38020;DHT22;23829;51.350;17.286;2023-11-19T10:26:23;14.10;48.70
38020;DHT22;23829;51.350;17.286;2023-11-19T10:28:52;14.20;48.60
38020;DHT22;23829;51.350;17.286;2023-11-19T10:31:20;14.20;48.70
38020;DHT22;23829;51.350;17.286;2023-11-19T10:33:51;13.90;49.20
38020;DHT22;23829;51.350;17.286;2023-11-19T10:36:18;14.00;49.60
38020;DHT22;23829;51.350;17.286;2023-11-19T10:38:56;14.10;49.20
38020;DHT22;23829;51.350;17.286;2023-11-19T10:41:27;14.10;49.30
38020;DHT22;23829;51.350;17.286;2023-11-19T10:43:58;14.00;49.30
38020;DHT22;23829;51.350;17.286;2023-11-19T10:46:37;14.00;49.70
38020;DHT22;23829;51.350;17.286;2023-11-19T10:49:04;14.20;49.40
38020;DHT22;23829;51.350;17.286;2023-11-19T10:51:31;14.40;49.20
38020;DHT22;23829;51.350;17.286;2023-11-19T10:54:03;14.40;49.00
38020;DHT22;23829;51.350;17.286;2023-11-19T10:56:34;14.60;48.90
38020;DHT22;23829;51.350;17.286;2023-11-19T10:59:01;14.80;48.20
38020;DHT22;23829;51.350;17.286;2023-11-19T11:01:42;15.10;47.90
38020;DHT22;23829;51.350;17.286;2023-11-19T11:04:22;15.20;47.80
38020;DHT22;23829;51.350;17.286;2023-11-19T11:06:49;15.40;47.00
38020;DHT22;23829;51.350;17.286;2023-11-19T11:09:16;15.30;47.10
38020;DHT22;23829;51.350;17.286;2023-11-19T11:11:48;15.30;47.40
38020;DHT22;23829;51.350;17.286;2023-11-19T11:14:24;15.60;46.90
38020;DHT22;23829;51.350;17.286;2023-11-19T11:16:53;15.50;47.10
38020;DHT22;23829;51.350;17.286;2023-11-19T11:19:21;15.30;47.50
38020;DHT22;23829;51.350;17.286;2023-11-19T11:21:53;15.60;47.30
38020;DHT22;23829;51.350;17.286;2023-11-19T11:27:36;16.00;46.70
38020;DHT22;23829;51.350;17.286;2023-11-19T11:36:23;17.60;44.50
38020;DHT22;23829;51.350;17.286;2023-11-19T11:38:50;17.10;44.30
38020;DHT22;23829;51.350;17.286;2023-11-19T11:41:23;17.40;44.40
38020;DHT22;23829;51.350;17.286;2023-11-19T11:43:52;18.00;43.20
38020;DHT22;23829;51.350;17.286;2023-11-19T11:49:02;17.10;44.70
38020;DHT22;23829;51.350;17.286;2023-11-19T11:54:11;17.50;44.40
38020;DHT22;23829;51.350;17.286;2023-11-19T11:56:38;17.50;44.80
38020;DHT22;23829;51.350;17.286;2023-11-19T11:59:26;17.50;44.70
38020;DHT22;23829;51.350;17.286;2023-11-19T12:02:00;17.30;44.80
38020;DHT22;23829;51.350;17.286;2023-11-19T12:04:27;17.30;45.30
38020;DHT22;23829;51.350;17.286;2023-11-19T12:07:23;17.40;45.30
38020;DHT22;23829;51.350;17.286;2023-11-19T12:10:08;17.00;45.70
38020;DHT22;23829;51.350;17.286;2023-11-19T12:12:37;17.30;45.70
38020;DHT22;23829;51.350;17.286;2023-11-19T12:15:10;17.10;46.00
38020;DHT22;23829;51.350;17.286;2023-11-19T12:17:47;16.80;46.50
38020;DHT22;23829;51.350;17.286;2023-11-19T12:20:35;16.60;46.80
38020;DHT22;23829;51.350;17.286;2023-11-19T12:23:04;16.50;47.60
38020;DHT22;23829;51.350;17.286;2023-11-19T12:25:34;16.40;47.90
38020;DHT22;23829;51.350;17.286;2023-11-19T12:28:00;16.90;47.90
38020;DHT22;23829;51.350;17.286;2023-11-19T12:30:30;17.00;47.10
38020;DHT22;23829;51.350;17.286;2023-11-19T12:32:56;17.10;47.20
38020;DHT22;23829;51.350;17.286;2023-11-19T12:35:23;17.90;45.80
38020;DHT22;23829;51.350;17.286;2023-11-19T12:37:50;17.80;45.70
38020;DHT22;23829;51.350;17.286;2023-11-19T12:40:22;17.50;45.90
38020;DHT22;23829;51.350;17.286;2023-11-19T12:42:50;17.30;46.70
38020;DHT22;23829;51.350;17.286;2023-11-19T12:45:17;17.20;47.10
38020;DHT22;23829;51.350;17.286;2023-11-19T12:47:46;17.30;47.10
38020;DHT22;23829;51.350;17.286;2023-11-19T12:50:16;17.40;47.00
38020;DHT22;23829;51.350;17.286;2023-11-19T12:52:58;17.30;47.00
38020;DHT22;23829;51.350;17.286;2023-11-19T12:55:27;18.10;46.30
38020;DHT22;23829;51.350;17.286;2023-11-19T12:57:54;18.60;45.20
38020;DHT22;23829;51.350;17.286;2023-11-19T13:00:26;18.70;44.90
38020;DHT22;23829;51.350;17.286;2023-11-19T13:02:54;18.60;44.90
38020;DHT22;23829;51.350;17.286;2023-11-19T13:05:23;18.50;45.30
38020;DHT22;23829;51.350;17.286;2023-11-19T13:10:50;18.70;45.50
38020;DHT22;23829;51.350;17.286;2023-11-19T13:13:17;18.90;45.00
38020;DHT22;23829;51.350;17.286;2023-11-19T13:15:43;18.70;45.30
38020;DHT22;23829;51.350;17.286;2023-11-19T13:18:11;18.60;45.50
38020;DHT22;23829;51.350;17.286;2023-11-19T13:20:38;18.80;45.40
38020;DHT22;23829;51.350;17.286;2023-11-19T13:23:05;18.70;45.60
38020;DHT22;23829;51.350;17.286;2023-11-19T13:25:33;18.60;45.70
38020;DHT22;23829;51.350;17.286;2023-11-19T13:27:59;18.30;46.20
38020;DHT22;23829;51.350;17.286;2023-11-19T13:30:26;18.40;46.20
38020;DHT22;23829;51.350;17.286;2023-11-19T13:32:53;18.30;46.60
38020;DHT22;23829;51.350;17.286;2023-11-19T13:35:21;18.30;46.60
38020;DHT22;23829;51.350;17.286;2023-11-19T13:37:48;18.40;46.70
38020;DHT22;23829;51.350;17.286;2023-11-19T13:40:15;18.60;46.50
38020;DHT22;23829;51.350;17.286;2023-11-19T13:42:42;18.80;46.30
38020;DHT22;23829;51.350;17.286;2023-11-19T13:45:10;18.80;46.40
38020;DHT22;23829;51.350;17.286;2023-11-19T13:47:45;18.60;46.30
38020;DHT22;23829;51.350;17.286;2023-11-19T13:50:14;18.50;46.80
38020;DHT22;23829;51.350;17.286;2023-11-19T13:52:43;18.70;46.90
38020;DHT22;23829;51.350;17.286;2023-11-19T13:55:11;18.80;46.50
38020;DHT22;23829;51.350;17.286;2023-11-19T13:57:38;18.90;46.20
38020;DHT22;23829;51.350;17.286;2023-11-19T14:00:06;18.90;46.30
38020;DHT22;23829;51.350;17.286;2023-11-19T14:02:34;18.90;46.50
38020;DHT22;23829;51.350;17.286;2023-11-19T14:05:01;19.00;46.40
38020;DHT22;23829;51.350;17.286;2023-11-19T14:07:27;19.40;45.70
38020;DHT22;23829;51.350;17.286;2023-11-19T14:09:54;19.30;46.00
38020;DHT22;23829;51.350;17.286;2023-11-19T14:12:21;19.40;45.70
38020;DHT22;23829;51.350;17.286;2023-11-19T14:14:53;19.40;45.60
38020;DHT22;23829;51.350;17.286;2023-11-19T14:17:25;19.30;45.80
38020;DHT22;23829;51.350;17.286;2023-11-19T14:19:52;19.40;45.90
38020;DHT22;23829;51.350;17.286;2023-11-19T14:22:18;19.60;45.70
38020;DHT22;23829;51.350;17.286;2023-11-19T14:24:44;19.40;46.00
38020;DHT22;23829;51.350;17.286;2023-11-19T14:27:11;19.50;46.00
38020;DHT22;23829;51.350;17.286;2023-11-19T14:29:37;19.60;45.90
38020;DHT22;23829;51.350;17.286;2023-11-19T14:32:04;19.70;45.70
38020;DHT22;23829;51.350;17.286;2023-11-19T14:34:31;19.90;45.50
38020;DHT22;23829;51.350;17.286;2023-11-19T14:36:58;19.80;45.70
38020;DHT22;23829;51.350;17.286;2023-11-19T14:39:25;20.00;45.50
38020;DHT22;23829;51.350;17.286;2023-11-19T14:41:51;20.10;45.20
38020;DHT22;23829;51.350;17.286;2023-11-19T14:44:19;20.10;45.00
38020;DHT22;23829;51.350;17.286;2023-11-19T14:46:47;20.00;45.30
38020;DHT22;23829;51.350;17.286;2023-11-19T14:49:13;20.20;45.20
38020;DHT22;23829;51.350;17.286;2023-11-19T14:51:40;20.20;45.20
38020;DHT22;23829;51.350;17.286;2023-11-19T14:54:06;19.80;45.60
38020;DHT22;23829;51.350;17.286;2023-11-19T14:56:33;20.00;45.70
38020;DHT22;23829;51.350;17.286;2023-11-19T14:58:59;19.90;45.80
38020;DHT22;23829;51.350;17.286;2023-11-19T15:01:25;19.90;45.80
38020;DHT22;23829;51.350;17.286;2023-11-19T15:03:52;20.10;45.60
38020;DHT22;23829;51.350;17.286;2023-11-19T15:06:18;20.10;45.80
38020;DHT22;23829;51.350;17.286;2023-11-19T15:08:44;20.10;45.70
38020;DHT22;23829;51.350;17.286;2023-11-19T15:11:11;20.10;45.50
38020;DHT22;23829;51.350;17.286;2023-11-19T15:13:37;20.00;46.00
38020;DHT22;23829;51.350;17.286;2023-11-19T15:16:07;20.10;46.00
38020;DHT22;23829;51.350;17.286;2023-11-19T15:18:36;20.10;45.80
38020;DHT22;23829;51.350;17.286;2023-11-19T15:21:03;20.40;45.60
38020;DHT22;23829;51.350;17.286;2023-11-19T15:23:30;20.20;45.50
38020;DHT22;23829;51.350;17.286;2023-11-19T15:25:56;20.10;46.00
38020;DHT22;23829;51.350;17.286;2023-11-19T15:28:22;20.30;45.90
38020;DHT22;23829;51.350;17.286;2023-11-19T15:30:49;20.20;46.00
38020;DHT22;23829;51.350;17.286;2023-11-19T15:33:17;20.80;45.50
38020;DHT22;23829;51.350;17.286;2023-11-19T15:35:44;21.30;44.40
38020;DHT22;23829;51.350;17.286;2023-11-19T15:38:10;21.40;44.10